sensor_id;sensor_type;location;lat;lon;timestamp;P1;durP1;ratioP1;P2;durP2;ratioP2
16775;SDS011;8505;49.456;8.164;2022-09-09T00:00:37;5.57;;;1.27;;
16775;SDS011;8505;49.456;8.164;2022-09-09T00:03:08;8.35;;;1.55;;
16775;SDS011;8505;49.456;8.164;2022-09-09T00:05:44;9.60;;;1.65;;
16775;SDS011;8505;49.456;8.164;2022-09-09T00:08:25;6.55;;;1.50;;
16775;SDS011;8505;49.456;8.164;2022-09-09T00:11:02;7.43;;;1.43;;
16775;SDS011;8505;49.456;8.164;2022-09-09T00:13:34;7.78;;;1.40;;
16775;SDS011;8505;49.456;8.164;2022-09-09T00:16:08;6.53;;;1.40;;
16775;SDS011;8505;49.456;8.164;2022-09-09T00:18:46;6.15;;;1.30;;
16775;SDS011;8505;49.456;8.164;2022-09-09T00:21:19;6.53;;;1.27;;
16775;SDS011;8505;49.456;8.164;2022-09-09T00:24:10;6.07;;;1.20;;
16775;SDS011;8505;49.456;8.164;2022-09-09T00:29:42;5.80;;;1.10;;
16775;SDS011;8505;49.456;8.164;2022-09-09T00:32:24;7.38;;;1.30;;
16775;SDS011;8505;49.456;8.164;2022-09-09T00:34:57;7.80;;;1.23;;
16775;SDS011;8505;49.456;8.164;2022-09-09T00:37:29;7.50;;;1.35;;
16775;SDS011;8505;49.456;8.164;2022-09-09T00:40:11;6.38;;;1.13;;
16775;SDS011;8505;49.456;8.164;2022-09-09T00:42:51;6.57;;;1.30;;
16775;SDS011;8505;49.456;8.164;2022-09-09T00:45:36;5.50;;;1.10;;
16775;SDS011;8505;49.456;8.164;2022-09-09T00:48:26;5.90;;;1.33;;
16775;SDS011;8505;49.456;8.164;2022-09-09T00:51:03;5.97;;;0.80;;
16775;SDS011;8505;49.456;8.164;2022-09-09T00:53:39;3.75;;;0.85;;
16775;SDS011;8505;49.456;8.164;2022-09-09T00:56:26;6.22;;;1.02;;
16775;SDS011;8505;49.456;8.164;2022-09-09T00:59:07;3.67;;;0.80;;
16775;SDS011;8505;49.456;8.164;2022-09-09T01:01:44;5.50;;;1.10;;
16775;SDS011;8505;49.456;8.164;2022-09-09T01:04:13;7.22;;;1.00;;
16775;SDS011;8505;49.456;8.164;2022-09-09T01:06:46;5.05;;;0.90;;
16775;SDS011;8505;49.456;8.164;2022-09-09T01:09:33;3.47;;;0.65;;
16775;SDS011;8505;49.456;8.164;2022-09-09T01:12:17;3.85;;;0.80;;
16775;SDS011;8505;49.456;8.164;2022-09-09T01:15:10;4.88;;;0.90;;
16775;SDS011;8505;49.456;8.164;2022-09-09T01:17:50;5.95;;;0.90;;
16775;SDS011;8505;49.456;8.164;2022-09-09T01:20:24;3.50;;;0.75;;
16775;SDS011;8505;49.456;8.164;2022-09-09T01:23:09;5.25;;;0.80;;
16775;SDS011;8505;49.456;8.164;2022-09-09T01:26:07;2.70;;;0.70;;
16775;SDS011;8505;49.456;8.164;2022-09-09T01:28:43;5.78;;;1.00;;
16775;SDS011;8505;49.456;8.164;2022-09-09T01:31:16;3.83;;;0.80;;
16775;SDS011;8505;49.456;8.164;2022-09-09T01:33:56;5.60;;;0.63;;
16775;SDS011;8505;49.456;8.164;2022-09-09T01:36:26;4.70;;;0.80;;
16775;SDS011;8505;49.456;8.164;2022-09-09T01:38:59;4.68;;;0.80;;
16775;SDS011;8505;49.456;8.164;2022-09-09T01:41:33;4.95;;;0.65;;
16775;SDS011;8505;49.456;8.164;2022-09-09T01:44:04;3.95;;;0.70;;
16775;SDS011;8505;49.456;8.164;2022-09-09T01:46:48;3.97;;;0.80;;
16775;SDS011;8505;49.456;8.164;2022-09-09T01:52:51;5.03;;;0.80;;
16775;SDS011;8505;49.456;8.164;2022-09-09T02:05:11;4.85;;;0.80;;
16775;SDS011;8505;49.456;8.164;2022-09-09T02:07:59;4.68;;;0.90;;
16775;SDS011;8505;49.456;8.164;2022-09-09T02:10:42;4.13;;;0.85;;
16775;SDS011;8505;49.456;8.164;2022-09-09T02:13:22;5.67;;;1.00;;
16775;SDS011;8505;49.456;8.164;2022-09-09T02:15:53;4.88;;;0.80;;
16775;SDS011;8505;49.456;8.164;2022-09-09T02:18:42;3.42;;;0.70;;
16775;SDS011;8505;49.456;8.164;2022-09-09T02:21:51;4.40;;;0.73;;
16775;SDS011;8505;49.456;8.164;2022-09-09T02:24:22;3.33;;;0.90;;
16775;SDS011;8505;49.456;8.164;2022-09-09T02:26:51;4.07;;;0.70;;
16775;SDS011;8505;49.456;8.164;2022-09-09T02:29:22;4.47;;;0.60;;
16775;SDS011;8505;49.456;8.164;2022-09-09T02:31:59;4.97;;;0.83;;
16775;SDS011;8505;49.456;8.164;2022-09-09T02:34:33;2.67;;;0.73;;
16775;SDS011;8505;49.456;8.164;2022-09-09T02:37:04;7.05;;;1.00;;
16775;SDS011;8505;49.456;8.164;2022-09-09T02:40:01;4.65;;;0.90;;
16775;SDS011;8505;49.456;8.164;2022-09-09T02:42:30;5.88;;;0.80;;
16775;SDS011;8505;49.456;8.164;2022-09-09T02:45:18;4.67;;;1.00;;
16775;SDS011;8505;49.456;8.164;2022-09-09T02:51:08;3.95;;;0.80;;
16775;SDS011;8505;49.456;8.164;2022-09-09T02:53:54;3.80;;;0.68;;
16775;SDS011;8505;49.456;8.164;2022-09-09T02:57:01;5.90;;;0.88;;
16775;SDS011;8505;49.456;8.164;2022-09-09T03:03:14;4.68;;;0.90;;
16775;SDS011;8505;49.456;8.164;2022-09-09T03:05:45;4.40;;;0.90;;
16775;SDS011;8505;49.456;8.164;2022-09-09T03:08:35;3.10;;;0.80;;
16775;SDS011;8505;49.456;8.164;2022-09-09T03:11:08;3.65;;;0.90;;
16775;SDS011;8505;49.456;8.164;2022-09-09T03:14:20;5.10;;;0.70;;
16775;SDS011;8505;49.456;8.164;2022-09-09T03:16:51;4.65;;;0.85;;
16775;SDS011;8505;49.456;8.164;2022-09-09T03:22:24;2.55;;;0.65;;
16775;SDS011;8505;49.456;8.164;2022-09-09T03:25:16;4.97;;;1.00;;
16775;SDS011;8505;49.456;8.164;2022-09-09T03:27:58;4.10;;;0.80;;
16775;SDS011;8505;49.456;8.164;2022-09-09T03:30:41;6.75;;;0.80;;
16775;SDS011;8505;49.456;8.164;2022-09-09T03:33:09;4.55;;;0.80;;
16775;SDS011;8505;49.456;8.164;2022-09-09T03:35:44;4.47;;;0.85;;
16775;SDS011;8505;49.456;8.164;2022-09-09T03:38:16;4.85;;;0.82;;
16775;SDS011;8505;49.456;8.164;2022-09-09T03:40:50;3.57;;;0.80;;
16775;SDS011;8505;49.456;8.164;2022-09-09T03:43:21;5.47;;;0.82;;
16775;SDS011;8505;49.456;8.164;2022-09-09T03:45:49;3.42;;;0.80;;
16775;SDS011;8505;49.456;8.164;2022-09-09T03:48:18;4.07;;;0.70;;
16775;SDS011;8505;49.456;8.164;2022-09-09T03:50:52;4.70;;;0.90;;
16775;SDS011;8505;49.456;8.164;2022-09-09T03:53:36;5.82;;;1.10;;
16775;SDS011;8505;49.456;8.164;2022-09-09T03:56:12;5.55;;;0.90;;
16775;SDS011;8505;49.456;8.164;2022-09-09T03:58:42;3.90;;;0.82;;
16775;SDS011;8505;49.456;8.164;2022-09-09T04:01:15;4.20;;;0.80;;
16775;SDS011;8505;49.456;8.164;2022-09-09T04:03:44;4.65;;;0.85;;
16775;SDS011;8505;49.456;8.164;2022-09-09T04:06:13;4.00;;;0.80;;
16775;SDS011;8505;49.456;8.164;2022-09-09T04:08:44;3.95;;;0.70;;
16775;SDS011;8505;49.456;8.164;2022-09-09T04:11:16;3.63;;;0.70;;
16775;SDS011;8505;49.456;8.164;2022-09-09T04:13:44;4.50;;;0.80;;
16775;SDS011;8505;49.456;8.164;2022-09-09T04:16:11;6.60;;;0.98;;
16775;SDS011;8505;49.456;8.164;2022-09-09T04:18:43;4.30;;;0.77;;
16775;SDS011;8505;49.456;8.164;2022-09-09T04:21:11;5.18;;;0.90;;
16775;SDS011;8505;49.456;8.164;2022-09-09T04:23:47;3.40;;;0.82;;
16775;SDS011;8505;49.456;8.164;2022-09-09T04:26:17;5.45;;;0.85;;
16775;SDS011;8505;49.456;8.164;2022-09-09T04:28:48;3.75;;;0.80;;
16775;SDS011;8505;49.456;8.164;2022-09-09T04:31:17;4.55;;;0.77;;
16775;SDS011;8505;49.456;8.164;2022-09-09T04:33:55;3.58;;;0.80;;
16775;SDS011;8505;49.456;8.164;2022-09-09T04:36:26;5.53;;;0.80;;
16775;SDS011;8505;49.456;8.164;2022-09-09T04:38:57;5.03;;;0.90;;
16775;SDS011;8505;49.456;8.164;2022-09-09T04:41:41;3.50;;;0.90;;
16775;SDS011;8505;49.456;8.164;2022-09-09T04:48:33;3.55;;;0.90;;
16775;SDS011;8505;49.456;8.164;2022-09-09T04:51:02;5.90;;;1.00;;
16775;SDS011;8505;49.456;8.164;2022-09-09T04:53:32;3.93;;;0.77;;
16775;SDS011;8505;49.456;8.164;2022-09-09T04:56:04;3.65;;;0.75;;
16775;SDS011;8505;49.456;8.164;2022-09-09T04:59:35;4.78;;;1.00;;
16775;SDS011;8505;49.456;8.164;2022-09-09T05:02:08;5.20;;;0.90;;
16775;SDS011;8505;49.456;8.164;2022-09-09T05:04:36;6.22;;;0.85;;
16775;SDS011;8505;49.456;8.164;2022-09-09T05:07:04;5.53;;;1.00;;
16775;SDS011;8505;49.456;8.164;2022-09-09T05:09:32;5.30;;;1.00;;
16775;SDS011;8505;49.456;8.164;2022-09-09T05:12:02;6.38;;;0.90;;
16775;SDS011;8505;49.456;8.164;2022-09-09T05:14:32;4.53;;;0.98;;
16775;SDS011;8505;49.456;8.164;2022-09-09T05:17:06;5.15;;;1.00;;
16775;SDS011;8505;49.456;8.164;2022-09-09T05:19:36;7.28;;;1.25;;
16775;SDS011;8505;49.456;8.164;2022-09-09T05:22:19;7.20;;;1.20;;
16775;SDS011;8505;49.456;8.164;2022-09-09T05:24:47;4.88;;;1.02;;
16775;SDS011;8505;49.456;8.164;2022-09-09T05:27:18;6.50;;;1.10;;
16775;SDS011;8505;49.456;8.164;2022-09-09T05:29:47;5.13;;;1.10;;
16775;SDS011;8505;49.456;8.164;2022-09-09T05:32:15;7.28;;;1.20;;
16775;SDS011;8505;49.456;8.164;2022-09-09T05:34:43;6.35;;;1.10;;
16775;SDS011;8505;49.456;8.164;2022-09-09T05:37:11;6.63;;;1.20;;
16775;SDS011;8505;49.456;8.164;2022-09-09T05:39:39;3.72;;;1.10;;
16775;SDS011;8505;49.456;8.164;2022-09-09T05:42:07;6.55;;;1.00;;
16775;SDS011;8505;49.456;8.164;2022-09-09T05:44:36;6.40;;;1.10;;
16775;SDS011;8505;49.456;8.164;2022-09-09T05:47:04;4.63;;;0.90;;
16775;SDS011;8505;49.456;8.164;2022-09-09T05:49:34;5.07;;;0.95;;
16775;SDS011;8505;49.456;8.164;2022-09-09T05:52:04;8.35;;;1.10;;
16775;SDS011;8505;49.456;8.164;2022-09-09T05:54:32;5.95;;;1.13;;
16775;SDS011;8505;49.456;8.164;2022-09-09T05:57:00;7.80;;;1.25;;
16775;SDS011;8505;49.456;8.164;2022-09-09T05:59:28;8.63;;;1.52;;
16775;SDS011;8505;49.456;8.164;2022-09-09T06:01:57;8.60;;;1.13;;
16775;SDS011;8505;49.456;8.164;2022-09-09T06:04:25;6.88;;;1.10;;
16775;SDS011;8505;49.456;8.164;2022-09-09T06:06:53;6.05;;;1.00;;
16775;SDS011;8505;49.456;8.164;2022-09-09T06:09:21;7.25;;;1.00;;
16775;SDS011;8505;49.456;8.164;2022-09-09T06:11:57;6.30;;;1.30;;
16775;SDS011;8505;49.456;8.164;2022-09-09T06:14:25;7.30;;;1.20;;
16775;SDS011;8505;49.456;8.164;2022-09-09T06:16:53;5.78;;;1.02;;
16775;SDS011;8505;49.456;8.164;2022-09-09T06:19:22;7.75;;;1.38;;
16775;SDS011;8505;49.456;8.164;2022-09-09T06:21:53;6.95;;;1.13;;
16775;SDS011;8505;49.456;8.164;2022-09-09T06:24:20;7.53;;;1.23;;
16775;SDS011;8505;49.456;8.164;2022-09-09T06:26:50;5.80;;;1.20;;
16775;SDS011;8505;49.456;8.164;2022-09-09T06:29:18;6.40;;;1.40;;
16775;SDS011;8505;49.456;8.164;2022-09-09T06:31:46;6.30;;;1.40;;
16775;SDS011;8505;49.456;8.164;2022-09-09T06:34:14;6.10;;;1.20;;
16775;SDS011;8505;49.456;8.164;2022-09-09T06:36:44;7.25;;;1.30;;
16775;SDS011;8505;49.456;8.164;2022-09-09T06:39:12;6.80;;;1.15;;
16775;SDS011;8505;49.456;8.164;2022-09-09T06:41:41;6.18;;;1.30;;
16775;SDS011;8505;49.456;8.164;2022-09-09T06:44:09;6.93;;;1.30;;
16775;SDS011;8505;49.456;8.164;2022-09-09T06:46:39;4.45;;;1.00;;
16775;SDS011;8505;49.456;8.164;2022-09-09T06:49:07;6.25;;;1.20;;
16775;SDS011;8505;49.456;8.164;2022-09-09T06:51:35;8.77;;;1.48;;
16775;SDS011;8505;49.456;8.164;2022-09-09T06:54:10;8.43;;;1.42;;
16775;SDS011;8505;49.456;8.164;2022-09-09T06:56:39;7.65;;;1.45;;
16775;SDS011;8505;49.456;8.164;2022-09-09T06:59:09;7.47;;;1.50;;
16775;SDS011;8505;49.456;8.164;2022-09-09T07:01:39;5.53;;;1.25;;
16775;SDS011;8505;49.456;8.164;2022-09-09T07:04:08;8.57;;;1.43;;
16775;SDS011;8505;49.456;8.164;2022-09-09T07:06:37;7.50;;;1.38;;
16775;SDS011;8505;49.456;8.164;2022-09-09T07:09:08;7.13;;;1.20;;
16775;SDS011;8505;49.456;8.164;2022-09-09T07:11:38;7.47;;;1.20;;
16775;SDS011;8505;49.456;8.164;2022-09-09T07:14:08;6.93;;;1.30;;
16775;SDS011;8505;49.456;8.164;2022-09-09T07:16:39;6.95;;;1.38;;
16775;SDS011;8505;49.456;8.164;2022-09-09T07:19:07;9.20;;;1.20;;
16775;SDS011;8505;49.456;8.164;2022-09-09T07:21:35;6.57;;;1.10;;
16775;SDS011;8505;49.456;8.164;2022-09-09T07:24:03;7.18;;;1.35;;
16775;SDS011;8505;49.456;8.164;2022-09-09T07:26:33;6.68;;;1.30;;
16775;SDS011;8505;49.456;8.164;2022-09-09T07:29:07;7.15;;;1.50;;
16775;SDS011;8505;49.456;8.164;2022-09-09T07:31:46;5.78;;;1.40;;
16775;SDS011;8505;49.456;8.164;2022-09-09T07:34:14;7.07;;;1.40;;
16775;SDS011;8505;49.456;8.164;2022-09-09T07:36:42;5.80;;;1.33;;
16775;SDS011;8505;49.456;8.164;2022-09-09T07:39:11;6.27;;;1.27;;
16775;SDS011;8505;49.456;8.164;2022-09-09T07:41:41;9.18;;;1.52;;
16775;SDS011;8505;49.456;8.164;2022-09-09T07:44:11;6.85;;;1.25;;
16775;SDS011;8505;49.456;8.164;2022-09-09T07:46:43;8.75;;;1.60;;
16775;SDS011;8505;49.456;8.164;2022-09-09T07:49:12;6.07;;;1.40;;
16775;SDS011;8505;49.456;8.164;2022-09-09T07:51:41;10.52;;;1.70;;
16775;SDS011;8505;49.456;8.164;2022-09-09T07:54:14;4.90;;;1.15;;
16775;SDS011;8505;49.456;8.164;2022-09-09T07:56:46;7.13;;;1.13;;
16775;SDS011;8505;49.456;8.164;2022-09-09T07:59:17;7.15;;;1.20;;
16775;SDS011;8505;49.456;8.164;2022-09-09T08:02:14;5.85;;;1.20;;
16775;SDS011;8505;49.456;8.164;2022-09-09T08:04:42;7.97;;;1.42;;
16775;SDS011;8505;49.456;8.164;2022-09-09T08:07:09;6.28;;;1.38;;
16775;SDS011;8505;49.456;8.164;2022-09-09T08:09:38;5.67;;;1.30;;
16775;SDS011;8505;49.456;8.164;2022-09-09T08:12:17;6.10;;;1.27;;
16775;SDS011;8505;49.456;8.164;2022-09-09T08:14:58;7.85;;;1.40;;
16775;SDS011;8505;49.456;8.164;2022-09-09T08:17:49;7.78;;;1.55;;
16775;SDS011;8505;49.456;8.164;2022-09-09T08:20:16;7.75;;;1.20;;
16775;SDS011;8505;49.456;8.164;2022-09-09T08:22:44;5.72;;;1.20;;
16775;SDS011;8505;49.456;8.164;2022-09-09T08:25:12;8.43;;;1.20;;
16775;SDS011;8505;49.456;8.164;2022-09-09T08:27:40;5.10;;;1.10;;
16775;SDS011;8505;49.456;8.164;2022-09-09T08:30:10;4.87;;;1.07;;
16775;SDS011;8505;49.456;8.164;2022-09-09T08:32:39;4.68;;;1.08;;
16775;SDS011;8505;49.456;8.164;2022-09-09T08:35:11;5.75;;;1.10;;
16775;SDS011;8505;49.456;8.164;2022-09-09T08:37:42;5.00;;;1.05;;
16775;SDS011;8505;49.456;8.164;2022-09-09T08:40:10;7.40;;;1.17;;
16775;SDS011;8505;49.456;8.164;2022-09-09T08:42:48;5.57;;;1.10;;
16775;SDS011;8505;49.456;8.164;2022-09-09T08:45:28;5.22;;;1.20;;
16775;SDS011;8505;49.456;8.164;2022-09-09T08:48:06;6.13;;;1.20;;
16775;SDS011;8505;49.456;8.164;2022-09-09T08:50:54;6.50;;;1.33;;
16775;SDS011;8505;49.456;8.164;2022-09-09T08:53:30;4.78;;;1.20;;
16775;SDS011;8505;49.456;8.164;2022-09-09T08:56:09;6.32;;;1.20;;
16775;SDS011;8505;49.456;8.164;2022-09-09T08:58:42;4.68;;;1.10;;
16775;SDS011;8505;49.456;8.164;2022-09-09T09:04:17;4.88;;;1.10;;
16775;SDS011;8505;49.456;8.164;2022-09-09T09:07:23;7.15;;;1.20;;
16775;SDS011;8505;49.456;8.164;2022-09-09T09:10:20;8.48;;;1.35;;
16775;SDS011;8505;49.456;8.164;2022-09-09T09:13:38;6.22;;;1.20;;
16775;SDS011;8505;49.456;8.164;2022-09-09T09:16:14;6.75;;;1.40;;
16775;SDS011;8505;49.456;8.164;2022-09-09T09:18:59;6.07;;;1.17;;
16775;SDS011;8505;49.456;8.164;2022-09-09T09:21:41;4.80;;;1.00;;
16775;SDS011;8505;49.456;8.164;2022-09-09T09:24:13;6.00;;;1.20;;
16775;SDS011;8505;49.456;8.164;2022-09-09T09:26:59;5.55;;;1.15;;
16775;SDS011;8505;49.456;8.164;2022-09-09T09:32:55;5.85;;;1.23;;
16775;SDS011;8505;49.456;8.164;2022-09-09T09:35:30;6.63;;;1.42;;
16775;SDS011;8505;49.456;8.164;2022-09-09T09:41:34;7.25;;;1.23;;
16775;SDS011;8505;49.456;8.164;2022-09-09T09:44:18;7.07;;;1.20;;
16775;SDS011;8505;49.456;8.164;2022-09-09T09:46:51;4.23;;;1.20;;
16775;SDS011;8505;49.456;8.164;2022-09-09T09:49:29;6.72;;;1.27;;
16775;SDS011;8505;49.456;8.164;2022-09-09T09:55:14;6.88;;;1.30;;
16775;SDS011;8505;49.456;8.164;2022-09-09T10:02:05;6.78;;;1.20;;
16775;SDS011;8505;49.456;8.164;2022-09-09T10:04:42;7.23;;;1.30;;
16775;SDS011;8505;49.456;8.164;2022-09-09T10:07:19;5.20;;;1.10;;
16775;SDS011;8505;49.456;8.164;2022-09-09T10:10:10;5.22;;;1.00;;
16775;SDS011;8505;49.456;8.164;2022-09-09T10:12:47;5.82;;;1.00;;
16775;SDS011;8505;49.456;8.164;2022-09-09T10:15:31;5.05;;;1.02;;
16775;SDS011;8505;49.456;8.164;2022-09-09T10:18:15;5.57;;;1.10;;
16775;SDS011;8505;49.456;8.164;2022-09-09T10:28:27;5.10;;;1.10;;
16775;SDS011;8505;49.456;8.164;2022-09-09T10:31:19;6.85;;;1.10;;
16775;SDS011;8505;49.456;8.164;2022-09-09T10:34:00;4.27;;;0.90;;
16775;SDS011;8505;49.456;8.164;2022-09-09T10:36:39;4.63;;;1.10;;
16775;SDS011;8505;49.456;8.164;2022-09-09T10:39:17;4.50;;;1.00;;
16775;SDS011;8505;49.456;8.164;2022-09-09T10:42:01;7.15;;;1.10;;
16775;SDS011;8505;49.456;8.164;2022-09-09T10:44:47;4.57;;;1.10;;
16775;SDS011;8505;49.456;8.164;2022-09-09T10:47:35;4.30;;;1.00;;
16775;SDS011;8505;49.456;8.164;2022-09-09T10:50:28;5.30;;;1.10;;
16775;SDS011;8505;49.456;8.164;2022-09-09T10:53:32;5.20;;;1.20;;
16775;SDS011;8505;49.456;8.164;2022-09-09T10:56:21;4.97;;;1.00;;
16775;SDS011;8505;49.456;8.164;2022-09-09T10:59:04;5.70;;;0.90;;
16775;SDS011;8505;49.456;8.164;2022-09-09T11:01:44;4.68;;;0.90;;
16775;SDS011;8505;49.456;8.164;2022-09-09T11:04:21;5.18;;;1.00;;
16775;SDS011;8505;49.456;8.164;2022-09-09T11:06:52;5.03;;;1.03;;
16775;SDS011;8505;49.456;8.164;2022-09-09T11:09:36;4.78;;;1.10;;
16775;SDS011;8505;49.456;8.164;2022-09-09T11:12:18;6.90;;;1.30;;
16775;SDS011;8505;49.456;8.164;2022-09-09T11:21:49;6.22;;;1.25;;
16775;SDS011;8505;49.456;8.164;2022-09-09T11:24:45;4.63;;;0.90;;
16775;SDS011;8505;49.456;8.164;2022-09-09T11:31:50;9.20;;;1.48;;
16775;SDS011;8505;49.456;8.164;2022-09-09T11:35:06;6.38;;;0.93;;
16775;SDS011;8505;49.456;8.164;2022-09-09T11:44:57;9.43;;;1.27;;
16775;SDS011;8505;49.456;8.164;2022-09-09T12:04:05;4.50;;;0.85;;
16775;SDS011;8505;49.456;8.164;2022-09-09T15:16:47;2.15;;;0.50;;
16775;SDS011;8505;49.456;8.164;2022-09-09T15:19:16;1.67;;;0.50;;
16775;SDS011;8505;49.456;8.164;2022-09-09T15:21:44;2.80;;;0.63;;
16775;SDS011;8505;49.456;8.164;2022-09-09T15:24:11;1.50;;;0.30;;
16775;SDS011;8505;49.456;8.164;2022-09-09T15:26:40;1.98;;;0.30;;
16775;SDS011;8505;49.456;8.164;2022-09-09T15:29:08;0.73;;;0.40;;
16775;SDS011;8505;49.456;8.164;2022-09-09T15:31:36;2.10;;;0.30;;
16775;SDS011;8505;49.456;8.164;2022-09-09T15:34:06;2.67;;;0.43;;
16775;SDS011;8505;49.456;8.164;2022-09-09T15:36:34;4.40;;;0.45;;
16775;SDS011;8505;49.456;8.164;2022-09-09T15:39:04;2.10;;;0.38;;
16775;SDS011;8505;49.456;8.164;2022-09-09T15:41:36;1.00;;;0.40;;
16775;SDS011;8505;49.456;8.164;2022-09-09T15:44:04;1.42;;;0.30;;
16775;SDS011;8505;49.456;8.164;2022-09-09T15:46:35;3.80;;;0.50;;
16775;SDS011;8505;49.456;8.164;2022-09-09T15:49:16;3.45;;;0.50;;
16775;SDS011;8505;49.456;8.164;2022-09-09T15:54:37;4.13;;;0.32;;
16775;SDS011;8505;49.456;8.164;2022-09-09T15:57:10;3.30;;;0.40;;
16775;SDS011;8505;49.456;8.164;2022-09-09T15:59:41;3.47;;;0.50;;
16775;SDS011;8505;49.456;8.164;2022-09-09T16:02:11;3.70;;;0.50;;
16775;SDS011;8505;49.456;8.164;2022-09-09T16:04:41;2.83;;;0.40;;
16775;SDS011;8505;49.456;8.164;2022-09-09T16:07:11;2.90;;;0.60;;
16775;SDS011;8505;49.456;8.164;2022-09-09T16:09:39;2.42;;;0.55;;
16775;SDS011;8505;49.456;8.164;2022-09-09T16:12:09;1.23;;;0.52;;
16775;SDS011;8505;49.456;8.164;2022-09-09T16:14:39;2.60;;;0.60;;
16775;SDS011;8505;49.456;8.164;2022-09-09T16:17:07;2.72;;;0.60;;
16775;SDS011;8505;49.456;8.164;2022-09-09T16:19:50;2.90;;;0.60;;
16775;SDS011;8505;49.456;8.164;2022-09-09T16:25:19;2.90;;;0.50;;
16775;SDS011;8505;49.456;8.164;2022-09-09T16:27:48;1.95;;;0.60;;
16775;SDS011;8505;49.456;8.164;2022-09-09T16:30:16;3.28;;;0.88;;
16775;SDS011;8505;49.456;8.164;2022-09-09T16:32:46;3.70;;;0.50;;
16775;SDS011;8505;49.456;8.164;2022-09-09T16:35:17;2.65;;;0.77;;
16775;SDS011;8505;49.456;8.164;2022-09-09T16:38:00;4.20;;;0.63;;
16775;SDS011;8505;49.456;8.164;2022-09-09T16:40:30;1.50;;;0.55;;
16775;SDS011;8505;49.456;8.164;2022-09-09T16:43:01;3.10;;;0.73;;
16775;SDS011;8505;49.456;8.164;2022-09-09T16:45:30;3.22;;;0.85;;
16775;SDS011;8505;49.456;8.164;2022-09-09T16:48:02;4.82;;;1.20;;
16775;SDS011;8505;49.456;8.164;2022-09-09T16:50:32;2.70;;;0.70;;
16775;SDS011;8505;49.456;8.164;2022-09-09T16:53:01;2.63;;;0.52;;
16775;SDS011;8505;49.456;8.164;2022-09-09T16:55:40;3.85;;;0.90;;
16775;SDS011;8505;49.456;8.164;2022-09-09T16:58:18;1.25;;;0.50;;
16775;SDS011;8505;49.456;8.164;2022-09-09T17:00:49;3.20;;;0.60;;
16775;SDS011;8505;49.456;8.164;2022-09-09T17:03:39;3.55;;;0.88;;
16775;SDS011;8505;49.456;8.164;2022-09-09T17:06:19;4.38;;;1.10;;
16775;SDS011;8505;49.456;8.164;2022-09-09T17:08:47;3.25;;;0.60;;
16775;SDS011;8505;49.456;8.164;2022-09-09T17:11:39;4.95;;;0.65;;
16775;SDS011;8505;49.456;8.164;2022-09-09T17:14:08;2.47;;;0.73;;
16775;SDS011;8505;49.456;8.164;2022-09-09T17:16:44;2.63;;;0.65;;
16775;SDS011;8505;49.456;8.164;2022-09-09T17:19:16;0.63;;;0.20;;
16775;SDS011;8505;49.456;8.164;2022-09-09T17:21:46;2.38;;;0.50;;
16775;SDS011;8505;49.456;8.164;2022-09-09T17:24:34;1.27;;;0.50;;
16775;SDS011;8505;49.456;8.164;2022-09-09T17:27:05;0.47;;;0.30;;
16775;SDS011;8505;49.456;8.164;2022-09-09T17:29:33;2.80;;;0.40;;
16775;SDS011;8505;49.456;8.164;2022-09-09T17:32:02;4.47;;;0.82;;
16775;SDS011;8505;49.456;8.164;2022-09-09T17:34:35;2.35;;;0.40;;
16775;SDS011;8505;49.456;8.164;2022-09-09T17:37:05;6.25;;;0.75;;
16775;SDS011;8505;49.456;8.164;2022-09-09T17:39:36;2.67;;;0.68;;
16775;SDS011;8505;49.456;8.164;2022-09-09T17:42:10;2.15;;;0.68;;
16775;SDS011;8505;49.456;8.164;2022-09-09T17:44:37;2.78;;;0.80;;
16775;SDS011;8505;49.456;8.164;2022-09-09T17:52:22;1.35;;;0.75;;
16775;SDS011;8505;49.456;8.164;2022-09-09T17:54:57;2.63;;;0.80;;
16775;SDS011;8505;49.456;8.164;2022-09-09T17:57:34;5.50;;;0.80;;
16775;SDS011;8505;49.456;8.164;2022-09-09T18:00:52;4.45;;;0.70;;
16775;SDS011;8505;49.456;8.164;2022-09-09T18:03:35;2.33;;;0.50;;
16775;SDS011;8505;49.456;8.164;2022-09-09T18:06:05;3.85;;;0.70;;
16775;SDS011;8505;49.456;8.164;2022-09-09T18:08:35;2.47;;;0.55;;
16775;SDS011;8505;49.456;8.164;2022-09-09T18:11:03;3.58;;;0.50;;
16775;SDS011;8505;49.456;8.164;2022-09-09T18:13:32;1.67;;;0.50;;
16775;SDS011;8505;49.456;8.164;2022-09-09T18:16:00;2.95;;;0.70;;
16775;SDS011;8505;49.456;8.164;2022-09-09T18:18:30;2.65;;;0.60;;
16775;SDS011;8505;49.456;8.164;2022-09-09T18:20:58;3.63;;;0.70;;
16775;SDS011;8505;49.456;8.164;2022-09-09T18:23:27;3.83;;;0.93;;
16775;SDS011;8505;49.456;8.164;2022-09-09T18:26:01;3.50;;;0.75;;
16775;SDS011;8505;49.456;8.164;2022-09-09T18:28:33;2.28;;;0.55;;
16775;SDS011;8505;49.456;8.164;2022-09-09T18:31:03;3.27;;;0.63;;
16775;SDS011;8505;49.456;8.164;2022-09-09T18:33:33;3.22;;;0.82;;
16775;SDS011;8505;49.456;8.164;2022-09-09T18:36:03;3.22;;;0.70;;
16775;SDS011;8505;49.456;8.164;2022-09-09T18:38:33;4.20;;;0.80;;
16775;SDS011;8505;49.456;8.164;2022-09-09T18:41:34;2.30;;;0.60;;
16775;SDS011;8505;49.456;8.164;2022-09-09T18:44:06;2.83;;;0.63;;
16775;SDS011;8505;49.456;8.164;2022-09-09T18:46:41;3.67;;;1.20;;
16775;SDS011;8505;49.456;8.164;2022-09-09T18:49:10;5.10;;;1.17;;
16775;SDS011;8505;49.456;8.164;2022-09-09T18:51:43;3.25;;;0.80;;
16775;SDS011;8505;49.456;8.164;2022-09-09T18:54:13;3.25;;;0.70;;
16775;SDS011;8505;49.456;8.164;2022-09-09T18:56:44;4.55;;;1.00;;
16775;SDS011;8505;49.456;8.164;2022-09-09T18:59:14;4.22;;;0.70;;
16775;SDS011;8505;49.456;8.164;2022-09-09T19:01:58;4.35;;;0.80;;
16775;SDS011;8505;49.456;8.164;2022-09-09T19:04:27;1.88;;;0.60;;
16775;SDS011;8505;49.456;8.164;2022-09-09T19:06:55;2.45;;;0.60;;
16775;SDS011;8505;49.456;8.164;2022-09-09T19:09:24;2.92;;;0.82;;
16775;SDS011;8505;49.456;8.164;2022-09-09T19:36:17;2.83;;;1.10;;
16775;SDS011;8505;49.456;8.164;2022-09-09T20:00:55;4.05;;;0.98;;
16775;SDS011;8505;49.456;8.164;2022-09-09T20:04:44;3.80;;;1.00;;
16775;SDS011;8505;49.456;8.164;2022-09-09T20:12:22;2.65;;;0.90;;
16775;SDS011;8505;49.456;8.164;2022-09-09T20:23:42;3.95;;;1.10;;
16775;SDS011;8505;49.456;8.164;2022-09-09T20:29:02;2.65;;;1.20;;
16775;SDS011;8505;49.456;8.164;2022-09-09T20:31:17;4.72;;;1.40;;
16775;SDS011;8505;49.456;8.164;2022-09-09T21:22:43;4.38;;;1.33;;
16775;SDS011;8505;49.456;8.164;2022-09-09T21:25:16;2.70;;;1.10;;
16775;SDS011;8505;49.456;8.164;2022-09-09T21:28:21;2.90;;;1.10;;
16775;SDS011;8505;49.456;8.164;2022-09-09T21:31:02;3.05;;;1.35;;
16775;SDS011;8505;49.456;8.164;2022-09-09T21:33:40;2.55;;;1.10;;
16775;SDS011;8505;49.456;8.164;2022-09-09T21:36:18;5.47;;;1.30;;
16775;SDS011;8505;49.456;8.164;2022-09-09T21:38:57;5.78;;;1.30;;
16775;SDS011;8505;49.456;8.164;2022-09-09T21:41:31;4.60;;;1.60;;
16775;SDS011;8505;49.456;8.164;2022-09-09T21:44:02;2.88;;;1.00;;
16775;SDS011;8505;49.456;8.164;2022-09-09T21:49:46;4.75;;;1.30;;
16775;SDS011;8505;49.456;8.164;2022-09-09T21:52:14;4.88;;;1.23;;
16775;SDS011;8505;49.456;8.164;2022-09-09T21:54:47;4.13;;;1.30;;
16775;SDS011;8505;49.456;8.164;2022-09-09T21:57:14;4.85;;;1.42;;
16775;SDS011;8505;49.456;8.164;2022-09-09T21:59:52;3.55;;;1.20;;
16775;SDS011;8505;49.456;8.164;2022-09-09T22:02:28;4.40;;;1.20;;
16775;SDS011;8505;49.456;8.164;2022-09-09T22:04:59;3.03;;;1.10;;
16775;SDS011;8505;49.456;8.164;2022-09-09T22:08:35;2.70;;;1.05;;
16775;SDS011;8505;49.456;8.164;2022-09-09T22:14:50;4.28;;;1.40;;
16775;SDS011;8505;49.456;8.164;2022-09-09T22:17:19;2.70;;;1.10;;
16775;SDS011;8505;49.456;8.164;2022-09-09T22:19:49;3.70;;;1.10;;
16775;SDS011;8505;49.456;8.164;2022-09-09T22:22:19;3.92;;;1.08;;
16775;SDS011;8505;49.456;8.164;2022-09-09T22:24:48;3.40;;;1.10;;
16775;SDS011;8505;49.456;8.164;2022-09-09T22:27:22;3.97;;;0.90;;
16775;SDS011;8505;49.456;8.164;2022-09-09T22:30:00;4.55;;;1.00;;
16775;SDS011;8505;49.456;8.164;2022-09-09T22:32:37;2.33;;;1.10;;
16775;SDS011;8505;49.456;8.164;2022-09-09T22:35:07;4.20;;;1.17;;
16775;SDS011;8505;49.456;8.164;2022-09-09T22:37:38;3.20;;;1.23;;
16775;SDS011;8505;49.456;8.164;2022-09-09T22:40:20;3.75;;;1.20;;